Time;durP1;ratioP1;P1;durP2;ratioP2;P2;SDS_P1;SDS_P2;PMS_P1;PMS_P2;Temp;Humidity;BMP_temperature;BMP_pressure;BME280_temperature;BME280_humidity;BME280_pressure;Samples;Min_cycle;Max_cycle;Signal;HPM_P1;HPM_P2
2022/03/24 00:02:12;;;;;;;;;39.75;33.00;;;;;15.64;33.05;102369.59;4977505;28;45400;-74
2022/03/24 00:04:38;;;;;;;;;40.25;34.50;;;;;15.61;33.00;102362.47;4980239;28;45312;-74
2022/03/24 00:07:04;;;;;;;;;40.75;34.00;;;;;15.64;33.39;102369.59;4980099;28;45371;-74
2022/03/24 00:09:29;;;;;;;;;41.50;33.75;;;;;15.56;33.35;102353.63;4976966;28;45517;-74
2022/03/24 00:11:55;;;;;;;;;40.75;34.00;;;;;15.62;33.08;102360.66;4980327;28;45788;-74
2022/03/24 00:14:21;;;;;;;;;40.75;35.00;;;;;15.58;33.01;102351.78;4985700;28;45533;-74
2022/03/24 00:16:47;;;;;;;;;42.75;35.75;;;;;15.59;33.13;102358.94;4979786;28;45329;-74
2022/03/24 00:19:13;;;;;;;;;47.75;36.00;;;;;15.58;33.20;102365.22;4979937;28;46159;-74
2022/03/24 00:21:38;;;;;;;;;39.25;34.50;;;;;15.59;32.98;102360.75;4975168;28;45500;-74
2022/03/24 00:24:04;;;;;;;;;42.25;36.25;;;;;15.57;33.00;102364.38;4980054;28;45256;-74
2022/03/24 00:26:29;;;;;;;;;42.25;36.75;;;;;15.55;32.87;102368.91;4982186;28;45510;-74
2022/03/24 00:28:55;;;;;;;;;39.75;34.25;;;;;15.55;32.95;102366.22;4982744;28;45322;-74
2022/03/24 00:31:20;;;;;;;;;38.00;32.75;;;;;15.49;32.86;102352.03;4982341;28;45323;-74
2022/03/24 00:33:45;;;;;;;;;46.25;35.50;;;;;15.52;32.86;102357.34;4982971;28;45362;-74
2022/03/24 00:36:11;;;;;;;;;41.00;35.25;;;;;15.55;33.10;102355.44;4987578;28;45339;-74
2022/03/24 00:38:38;;;;;;;;;38.25;34.00;;;;;15.52;32.55;102357.34;4988765;28;46038;-74
2022/03/24 00:41:03;;;;;;;;;45.50;37.50;;;;;15.46;33.09;102346.75;4982035;28;45383;-74
2022/03/24 00:43:30;;;;;;;;;42.75;35.50;;;;;15.49;32.95;102349.34;4982969;28;45329;-74
2022/03/24 00:45:55;;;;;;;;;41.75;36.50;;;;;15.49;32.99;102357.44;4969721;28;45389;-74
2022/03/24 00:48:21;;;;;;;;;40.50;35.25;;;;;15.48;32.87;102352.97;4982843;28;45392;-74
2022/03/24 00:50:47;;;;;;;;;34.50;32.50;;;;;15.43;33.24;102347.69;4981957;28;45304;-74
2022/03/24 00:53:12;;;;;;;;;40.75;35.75;;;;;15.41;33.43;102352.25;4990470;28;45565;-74
2022/03/24 00:55:40;;;;;;;;;41.75;34.50;;;;;15.40;33.55;102345.09;4982615;28;45730;-74
2022/03/24 00:58:05;;;;;;;;;41.75;36.00;;;;;15.37;33.40;102355.97;4982741;28;46443;-74
2022/03/24 01:00:32;;;;;;;;;43.00;35.50;;;;;15.33;33.61;102348.88;4981844;28;45346;-74
2022/03/24 01:02:58;;;;;;;;;38.25;34.00;;;;;15.30;33.44;102343.56;4982428;28;45491;-74
2022/03/24 01:05:27;;;;;;;;;45.75;36.00;;;;;15.24;33.63;102347.31;4982865;28;45496;-74
2022/03/24 01:07:54;;;;;;;;;38.75;34.00;;;;;15.25;33.85;102340.13;4982256;28;45313;-73
2022/03/24 01:10:21;;;;;;;;;46.50;37.00;;;;;15.19;33.37;102357.31;4980332;28;45596;-74
2022/03/24 01:12:48;;;;;;;;;40.00;35.50;;;;;15.15;33.74;102335.00;4982694;28;45482;-74
2022/03/24 01:15:16;;;;;;;;;39.00;34.00;;;;;15.17;33.73;102345.72;4973230;28;46460;-74
2022/03/24 01:17:42;;;;;;;;;35.75;31.50;;;;;15.17;33.58;102332.28;4979573;28;46543;-74
2022/03/24 01:20:08;;;;;;;;;36.75;34.00;;;;;15.17;33.82;102337.66;4981755;28;45811;-73
2022/03/24 01:22:34;;;;;;;;;35.25;31.25;;;;;15.09;33.88;102316.31;4982602;28;45325;-74
2022/03/24 01:25:00;;;;;;;;;43.50;36.25;;;;;15.10;33.77;102333.34;4982519;28;45289;-74
2022/03/24 01:27:28;;;;;;;;;35.25;32.75;;;;;15.08;33.89;102332.50;4983172;28;45393;-74
2022/03/24 01:29:56;;;;;;;;;41.75;35.75;;;;;15.06;34.07;102335.22;4981960;28;45340;-74
2022/03/24 01:32:22;;;;;;;;;38.00;33.50;;;;;15.03;34.30;102335.28;4986253;28;45332;-74
2022/03/24 01:34:48;;;;;;;;;40.00;34.50;;;;;15.05;33.89;102338.84;4982568;28;45292;-74
2022/03/24 01:37:14;;;;;;;;;43.00;36.50;;;;;15.01;34.24;102342.53;4981611;28;45301;-74
2022/03/24 01:39:40;;;;;;;;;36.50;33.75;;;;;14.99;34.40;102337.19;4982037;28;45245;-74
2022/03/24 01:42:06;;;;;;;;;32.50;28.00;;;;;14.93;34.50;102323.88;4979184;28;45570;-73
2022/03/24 01:44:32;;;;;;;;;42.50;34.00;;;;;14.97;34.60;102335.47;4970532;28;45343;-74
2022/03/24 01:47:07;;;;;;;;;43.50;34.25;;;;;14.93;34.61;102329.25;5000186;28;46010;-74
2022/03/24 01:49:38;;;;;;;;;39.50;34.25;;;;;14.92;33.98;102324.81;4981963;28;45802;-74
2022/03/24 01:52:08;;;;;;;;;38.75;34.00;;;;;14.92;34.37;102324.81;4980611;28;45209;-74
2022/03/24 01:54:36;;;;;;;;;41.50;33.50;;;;;14.90;34.45;102333.84;4982082;28;45720;-73
2022/03/24 01:57:03;;;;;;;;;42.00;35.50;;;;;14.89;34.62;102321.34;4981938;28;45427;-74
2022/03/24 01:59:29;;;;;;;;;37.50;33.00;;;;;14.78;34.67;102308.16;4981686;28;45328;-74
2022/03/24 02:01:55;;;;;;;;;41.50;36.00;;;;;14.82;34.57;102309.84;4979632;28;45277;-74
2022/03/24 02:04:21;;;;;;;;;39.25;33.75;;;;;14.84;34.63;102318.75;4981937;28;45486;-74
2022/03/24 02:06:47;;;;;;;;;44.75;35.50;;;;;14.82;34.80;102323.31;4981533;28;45400;-74
2022/03/24 02:09:13;;;;;;;;;38.50;33.50;;;;;14.79;34.81;102315.31;4978048;28;45951;-74
2022/03/24 02:11:39;;;;;;;;;40.75;34.00;;;;;14.74;34.77;102306.47;4981176;28;45438;-73
2022/03/24 02:14:06;;;;;;;;;42.00;34.25;;;;;14.75;34.82;102319.88;4981649;28;45471;-73
2022/03/24 02:16:38;;;;;;;;;41.75;36.50;;;;;14.75;34.62;102317.19;4981354;28;45425;-74
2022/03/24 02:19:10;;;;;;;;;40.00;33.50;;;;;14.73;34.96;102318.13;4983450;28;45840;-74
2022/03/24 02:21:36;;;;;;;;;30.00;27.00;;;;;14.70;34.67;102316.44;4981183;28;45313;-74
2022/03/24 02:24:02;;;;;;;;;39.50;35.25;;;;;14.69;34.75;102319.16;4981717;28;45324;-74
2022/03/24 02:26:27;;;;;;;;;41.75;35.00;;;;;14.67;34.68;102320.97;4981402;28;45397;-74
2022/03/24 02:28:55;;;;;;;;;44.50;33.50;;;;;14.63;34.93;102314.78;4980647;28;45475;-74
2022/03/24 02:31:21;;;;;;;;;39.25;35.00;;;;;14.63;34.67;102312.09;4980324;28;46596;-74
2022/03/24 02:33:47;;;;;;;;;40.00;34.50;;;;;14.59;34.89;102321.16;4981679;28;45656;-74
2022/03/24 02:36:12;;;;;;;;;37.50;33.75;;;;;14.57;34.71;102310.41;4981272;28;45222;-74
2022/03/24 02:38:37;;;;;;;;;39.50;34.00;;;;;14.55;34.80;102317.66;4980633;28;45224;-73
2022/03/24 02:41:04;;;;;;;;;40.00;34.50;;;;;14.53;35.05;102307.84;4980498;28;45533;-74
2022/03/24 02:43:31;;;;;;;;;41.00;35.00;;;;;14.54;34.76;102310.50;4969435;28;45398;-74
2022/03/24 02:45:57;;;;;;;;;40.50;34.50;;;;;14.54;34.98;102309.63;4967729;28;46201;-74
2022/03/24 02:48:23;;;;;;;;;43.25;36.50;;;;;14.50;35.17;102305.22;4979611;28;45486;-74
2022/03/24 02:50:49;;;;;;;;;42.75;35.75;;;;;14.51;35.23;102312.38;4981070;28;45494;-74
2022/03/24 02:53:15;;;;;;;;;44.75;34.00;;;;;14.42;35.04;102305.41;4981952;28;45414;-74
2022/03/24 02:55:41;;;;;;;;;41.75;35.25;;;;;14.46;35.35;102316.03;4981093;28;47154;-74
2022/03/24 02:58:06;;;;;;;;;42.50;33.25;;;;;14.38;35.19;102301.94;4980494;28;45491;-74
2022/03/24 03:00:32;;;;;;;;;43.00;36.00;;;;;14.39;35.32;102306.38;4980712;28;45470;-74
2022/03/24 03:02:57;;;;;;;;;41.25;36.00;;;;;14.41;35.27;102315.25;4980926;28;45453;-74
2022/03/24 03:05:23;;;;;;;;;42.75;35.50;;;;;14.38;35.33;102315.34;4980793;28;46046;-74
2022/03/24 03:07:49;;;;;;;;;39.50;33.25;;;;;14.37;35.31;102308.22;4975895;28;45455;-74
2022/03/24 03:10:15;;;;;;;;;41.00;34.25;;;;;14.40;35.51;102323.34;4979760;28;45487;-74
2022/03/24 03:12:44;;;;;;;;;43.50;34.25;;;;;14.34;35.65;102302.91;4981053;28;45507;-74
2022/03/24 03:15:10;;;;;;;;;41.50;34.75;;;;;14.25;35.79;102301.31;4967881;28;46664;-74
2022/03/24 03:17:36;;;;;;;;;37.00;33.00;;;;;14.34;35.87;102310.97;4978581;28;45365;-74
2022/03/24 03:20:03;;;;;;;;;42.25;34.25;;;;;14.33;35.79;102316.38;4981058;28;45359;-74
2022/03/24 03:22:29;;;;;;;;;44.25;36.50;;;;;14.30;35.75;102311.06;4968298;28;45376;-74
2022/03/24 03:24:55;;;;;;;;;41.00;33.25;;;;;14.23;36.24;102294.19;4982304;28;46162;-74
2022/03/24 03:27:21;;;;;;;;;46.25;38.25;;;;;14.23;36.12;102313.00;4986066;28;45282;-74
2022/03/24 03:29:47;;;;;;;;;39.75;34.25;;;;;14.17;36.44;102303.28;4980455;28;45313;-74
2022/03/24 03:32:13;;;;;;;;;44.25;36.50;;;;;14.20;36.59;102313.06;4979438;28;45515;-74
2022/03/24 03:34:40;;;;;;;;;48.25;37.50;;;;;14.15;36.50;102312.28;4980625;28;46014;-74
2022/03/24 03:37:06;;;;;;;;;41.50;35.00;;;;;14.18;36.61;102314.91;4980322;28;46019;-74
2022/03/24 03:39:31;;;;;;;;;42.75;36.25;;;;;14.11;36.52;102310.59;4980353;28;45269;-74
2022/03/24 03:41:57;;;;;;;;;39.25;34.75;;;;;14.13;36.84;102319.50;4979657;28;45492;-74
2022/03/24 03:44:23;;;;;;;;;35.75;31.50;;;;;14.11;36.53;102318.66;4962659;28;45332;-74
2022/03/24 03:46:50;;;;;;;;;37.25;32.75;;;;;14.07;36.60;102316.03;4973678;28;45392;-74
2022/03/24 03:49:16;;;;;;;;;45.25;36.75;;;;;14.04;36.96;102312.53;4967548;28;45329;-74
2022/03/24 03:51:41;;;;;;;;;31.50;31.00;;;;;14.06;36.69;102314.25;4979572;28;45527;-74
2022/03/24 03:54:10;;;;;;;;;41.00;35.00;;;;;13.99;36.91;102306.38;4965762;28;47450;-74
2022/03/24 03:56:36;;;;;;;;;42.00;36.00;;;;;14.00;37.17;102313.50;4979217;28;45665;-74
2022/03/24 03:59:02;;;;;;;;;46.25;36.50;;;;;13.98;37.42;102316.25;4980053;28;45552;-74
2022/03/24 04:01:29;;;;;;;;;39.75;33.75;;;;;13.94;37.15;102308.28;4979120;28;45681;-74
2022/03/24 04:03:55;;;;;;;;;37.75;31.50;;;;;13.90;37.36;102302.09;4980103;28;46084;-74
2022/03/24 04:06:20;;;;;;;;;45.50;35.25;;;;;13.88;37.39;102295.88;4979851;28;45206;-74
2022/03/24 04:08:45;;;;;;;;;41.25;35.00;;;;;13.87;37.25;102308.41;4975022;28;45660;-74
2022/03/24 04:11:12;;;;;;;;;43.25;36.00;;;;;13.89;37.44;102311.06;4979247;28;45563;-74
2022/03/24 04:13:39;;;;;;;;;40.75;35.25;;;;;13.86;37.58;102314.69;4979401;28;45385;-74
2022/03/24 04:16:06;;;;;;;;;40.00;34.75;;;;;13.78;37.43;102296.97;4988164;28;45427;-74
2022/03/24 04:18:32;;;;;;;;;39.75;34.25;;;;;13.78;37.79;102295.19;4980262;28;45305;-74
2022/03/24 04:20:57;;;;;;;;;40.50;33.75;;;;;13.79;37.76;102301.44;4977995;28;45337;-74
2022/03/24 04:23:23;;;;;;;;;42.75;34.75;;;;;13.79;37.99;102310.38;4979436;28;46423;-74
2022/03/24 04:25:49;;;;;;;;;36.25;33.00;;;;;13.75;37.94;102300.63;4979879;28;45441;-74
2022/03/24 04:28:14;;;;;;;;;44.25;37.00;;;;;13.75;37.87;102313.13;4980057;28;45515;-74
2022/03/24 04:30:40;;;;;;;;;43.00;35.00;;;;;13.71;38.09;102304.28;4979168;28;45313;-74
2022/03/24 04:33:05;;;;;;;;;39.00;34.00;;;;;13.69;38.02;102306.97;4968758;28;45456;-74
2022/03/24 04:35:31;;;;;;;;;37.25;34.75;;;;;13.64;37.89;102306.19;4979616;28;45447;-74
2022/03/24 04:37:58;;;;;;;;;39.00;34.50;;;;;13.61;38.20;102298.22;4979713;28;45490;-74
2022/03/24 04:40:24;;;;;;;;;38.00;32.75;;;;;13.60;38.43;102298.22;4976909;28;45450;-74
2022/03/24 04:42:53;;;;;;;;;42.75;35.00;;;;;13.62;38.38;102301.78;4970706;28;45443;-74
2022/03/24 04:45:19;;;;;;;;;20.25;19.75;;;;;13.60;38.72;102307.19;4962487;28;45708;-74
2022/03/24 04:47:49;;;;;;;;;28.75;28.75;;;;;13.58;38.62;102302.75;4978390;28;45318;-74
2022/03/24 04:50:17;;;;;;;;;31.50;29.25;;;;;13.56;38.53;102305.47;4979248;28;45561;-74
2022/03/24 04:52:43;;;;;;;;;33.25;31.50;;;;;13.46;38.51;102294.03;4978720;28;46509;-74
2022/03/24 04:55:09;;;;;;;;;34.50;33.00;;;;;13.50;38.71;102298.44;4979551;28;45189;-74
2022/03/24 04:57:35;;;;;;;;;45.00;38.00;;;;;13.48;38.77;102297.59;4979606;28;45533;-74
2022/03/24 05:00:00;;;;;;;;;39.50;34.25;;;;;13.48;38.77;102299.38;4979319;28;45400;-74
2022/03/24 05:02:26;;;;;;;;;40.50;35.75;;;;;13.45;38.87;102302.13;4978820;28;45689;-74
2022/03/24 05:04:54;;;;;;;;;41.00;34.50;;;;;13.40;38.70;102301.31;4979369;28;45257;-74
2022/03/24 05:07:19;;;;;;;;;38.50;33.75;;;;;13.44;38.51;102305.72;4987855;28;45513;-74
2022/03/24 05:09:53;;;;;;;;;42.00;31.75;;;;;13.41;37.53;102303.97;4975686;28;45478;-74
2022/03/24 05:12:18;;;;;;;;;36.25;31.25;;;;;13.42;37.51;102307.56;4980501;28;46182;-74
2022/03/24 05:14:44;;;;;;;;;39.75;34.00;;;;;13.40;37.76;102296.84;4982409;28;45308;-74
2022/03/24 05:17:09;;;;;;;;;43.50;35.75;;;;;13.46;37.26;102301.19;4982618;28;45535;-74
2022/03/24 05:19:35;;;;;;;;;42.75;34.50;;;;;13.46;36.87;102306.56;4982099;28;45299;-74
2022/03/24 05:22:01;;;;;;;;;39.00;34.75;;;;;13.47;36.86;102306.53;4983128;28;46147;-73
2022/03/24 05:24:27;;;;;;;;;37.00;32.75;;;;;13.49;36.83;102301.16;4985137;28;46070;-73
2022/03/24 05:26:53;;;;;;;;;43.00;34.50;;;;;13.51;36.71;102319.00;4982656;28;45225;-74
2022/03/24 05:29:18;;;;;;;;;35.25;32.00;;;;;13.52;36.69;102315.38;4982002;28;45329;-74
2022/03/24 05:31:44;;;;;;;;;35.50;32.50;;;;;13.46;37.22;102295.84;4978658;28;46281;-74
2022/03/24 05:34:09;;;;;;;;;42.50;32.50;;;;;13.51;37.23;102304.69;4982261;28;45151;-73
2022/03/24 05:36:34;;;;;;;;;33.50;32.25;;;;;13.47;37.30;102308.34;4982423;28;45334;-73
2022/03/24 05:39:00;;;;;;;;;37.25;34.25;;;;;13.48;36.86;102310.09;4982475;28;45554;-74
2022/03/24 05:41:26;;;;;;;;;41.50;35.00;;;;;13.48;37.41;102307.41;4985947;28;46326;-74
2022/03/24 05:44:03;;;;;;;;;40.25;36.00;;;;;13.48;37.55;102308.31;4979664;28;45463;-74
2022/03/24 05:46:34;;;;;;;;;35.25;31.00;;;;;13.46;37.86;102311.94;4971707;28;45688;-74
2022/03/24 05:48:59;;;;;;;;;42.00;33.25;;;;;13.43;38.01;102306.63;4981893;28;45297;-74
2022/03/24 05:51:25;;;;;;;;;37.00;32.00;;;;;13.41;37.84;102311.13;4981158;28;45522;-75
2022/03/24 05:53:51;;;;;;;;;37.50;33.75;;;;;13.33;37.71;102305.91;4982123;28;45521;-75
2022/03/24 05:56:16;;;;;;;;;37.50;33.00;;;;;13.36;38.26;102313.03;4981130;28;45266;-75
2022/03/24 05:58:42;;;;;;;;;42.00;35.75;;;;;13.34;38.20;102313.94;4983371;28;45287;-75
2022/03/24 06:01:09;;;;;;;;;34.75;32.50;;;;;13.29;38.51;102315.78;4980228;28;45484;-75
2022/03/24 06:03:35;;;;;;;;;33.75;30.50;;;;;13.33;38.53;102324.69;4981523;28;45724;-75
2022/03/24 06:06:01;;;;;;;;;44.25;37.25;;;;;13.27;38.79;102312.25;4982062;28;45352;-74
2022/03/24 06:08:27;;;;;;;;;40.50;35.25;;;;;13.30;38.80;102319.38;4979807;28;45429;-75
2022/03/24 06:10:53;;;;;;;;;38.00;33.75;;;;;13.32;38.69;102317.56;4982490;28;48306;-75
2022/03/24 06:13:19;;;;;;;;;47.50;38.00;;;;;13.31;38.73;102319.34;4981574;28;45397;-75
2022/03/24 06:15:45;;;;;;;;;44.00;37.00;;;;;13.28;39.14;102316.72;4981144;28;45295;-75
2022/03/24 06:18:11;;;;;;;;;43.50;36.25;;;;;13.27;39.05;102316.75;4981213;28;45490;-75
2022/03/24 06:20:36;;;;;;;;;42.00;35.00;;;;;13.27;39.06;102308.69;4980899;28;45405;-74
2022/03/24 06:23:02;;;;;;;;;38.75;35.00;;;;;13.30;39.38;102327.41;4979376;28;45248;-75
2022/03/24 06:25:27;;;;;;;;;46.00;37.50;;;;;13.28;39.53;102330.13;4981627;28;45533;-75
2022/03/24 06:27:52;;;;;;;;;48.50;40.00;;;;;13.23;39.37;102315.91;4981076;28;45330;-75
2022/03/24 06:30:19;;;;;;;;;41.00;34.00;;;;;13.28;39.51;102315.81;4979910;28;45233;-75
2022/03/24 06:32:45;;;;;;;;;48.50;37.25;;;;;13.30;38.53;102325.59;4980621;28;45689;-75
2022/03/24 06:35:11;;;;;;;;;43.00;35.25;;;;;13.29;39.21;102323.81;4996525;28;45526;-75
2022/03/24 06:37:40;;;;;;;;;44.00;35.75;;;;;13.34;38.99;102326.47;4980555;28;45297;-75
2022/03/24 06:40:14;;;;;;;;;44.00;34.00;;;;;13.29;38.87;102323.81;4978875;28;47613;-77
2022/03/24 06:42:40;;;;;;;;;39.75;33.50;;;;;13.34;38.89;102324.66;4981161;28;45225;-75
2022/03/24 06:45:07;;;;;;;;;41.75;35.50;;;;;13.31;38.91;102321.13;4981021;28;45384;-69
2022/03/24 06:47:33;;;;;;;;;28.50;26.00;;;;;13.37;38.87;102326.41;4981540;28;45406;-71
2022/03/24 06:49:59;;;;;;;;;38.75;35.25;;;;;13.37;38.98;102326.41;4978274;28;45360;-71
2022/03/24 06:52:24;;;;;;;;;33.50;32.00;;;;;13.39;39.20;102332.63;4980904;28;45379;-72
2022/03/24 06:54:50;;;;;;;;;41.25;35.25;;;;;13.40;38.83;102325.44;4980998;28;45491;-69
2022/03/24 06:57:15;;;;;;;;;48.25;38.75;;;;;13.41;39.19;102325.44;4976521;28;45515;-69
2022/03/24 06:59:41;;;;;;;;;38.50;34.75;;;;;13.42;39.28;102332.56;4980830;28;45308;-72
2022/03/24 07:02:07;;;;;;;;;28.75;25.50;;;;;13.39;39.32;102329.94;4971751;28;45828;-72
2022/03/24 07:04:33;;;;;;;;;33.75;32.75;;;;;13.41;39.45;102336.16;4974400;28;46301;-72
2022/03/24 07:06:59;;;;;;;;;39.50;35.25;;;;;13.34;39.43;102332.69;4982053;28;45537;-71
2022/03/24 07:09:24;;;;;;;;;44.50;38.00;;;;;13.37;39.47;102337.13;4981846;28;46308;-71
2022/03/24 07:11:54;;;;;;;;;37.00;32.50;;;;;13.44;39.67;102345.97;4978160;28;45507;-72
2022/03/24 07:14:19;;;;;;;;;37.50;31.50;;;;;13.40;39.93;102329.03;4978158;28;45375;-71
2022/03/24 07:16:44;;;;;;;;;44.25;37.75;;;;;13.44;39.80;102336.09;4978033;28;45370;-70
2022/03/24 07:19:10;;;;;;;;;44.00;37.25;;;;;13.45;39.93;102332.53;4978022;28;46707;-70
2022/03/24 07:21:36;;;;;;;;;46.00;38.00;;;;;13.47;39.76;102337.84;4964344;28;45355;-70
2022/03/24 07:24:02;;;;;;;;;47.00;38.25;;;;;13.43;39.86;102328.06;4974389;28;45599;-71
2022/03/24 07:26:27;;;;;;;;;47.25;38.00;;;;;13.47;39.91;102336.06;4970644;28;45431;-71
2022/03/24 07:28:53;;;;;;;;;44.50;37.25;;;;;13.47;39.99;102333.38;4973747;28;45424;-70
2022/03/24 07:31:19;;;;;;;;;50.50;41.25;;;;;13.48;39.51;102331.56;4965938;28;45365;-77
2022/03/24 07:33:45;;;;;;;;;45.50;37.25;;;;;13.49;39.41;102330.66;4975110;28;45394;-81
2022/03/24 07:36:12;;;;;;;;;45.25;37.00;;;;;13.54;39.41;102339.50;4976601;28;45353;-79
2022/03/24 07:38:38;;;;;;;;;44.50;35.50;;;;;13.53;39.28;102341.31;4970495;28;45328;-81
2022/03/24 07:41:03;;;;;;;;;49.00;37.50;;;;;13.53;39.84;102340.41;4973760;28;45624;-81
2022/03/24 07:43:29;;;;;;;;;45.00;38.50;;;;;13.55;39.41;102343.97;4972165;28;45291;-83
2022/03/24 07:45:54;;;;;;;;;50.75;41.75;;;;;13.54;38.53;102350.22;4968476;28;45548;-79
2022/03/24 07:48:25;;;;;;;;;52.75;41.25;;;;;13.58;38.69;102353.72;4970607;28;45599;-79
2022/03/24 07:50:55;;;;;;;;;47.75;39.50;;;;;13.62;38.70;102360.81;4977076;28;45467;-81
2022/03/24 07:53:49;;;;;;;;;48.25;37.75;;;;;13.66;38.96;102355.34;4971705;28;45456;-80
2022/03/24 07:56:24;;;;;;;;;53.00;38.50;;;;;13.68;38.79;102361.59;4973644;28;45909;-80
2022/03/24 07:58:50;;;;;;;;;50.75;40.75;;;;;13.66;38.37;102358.03;4968566;28;45752;-78
2022/03/24 08:01:28;;;;;;;;;53.00;42.50;;;;;13.69;37.92;102363.34;4976237;28;45973;-76
2022/03/24 08:03:55;;;;;;;;;49.00;39.50;;;;;13.67;37.54;102367.00;4984860;28;45274;-76
2022/03/24 08:06:21;;;;;;;;;43.50;37.50;;;;;13.71;37.79;102356.16;4971768;28;45894;-74
2022/03/24 08:08:46;;;;;;;;;46.00;39.00;;;;;13.79;37.67;102366.72;4976862;28;46563;-75
2022/03/24 08:11:12;;;;;;;;;44.50;37.25;;;;;13.80;37.26;102367.59;4975294;28;45439;-73
2022/03/24 08:13:37;;;;;;;;;49.50;37.25;;;;;13.83;36.87;102364.88;4963551;28;45428;-77
2022/03/24 08:16:04;;;;;;;;;46.00;38.25;;;;;13.82;36.61;102358.63;4965584;28;45591;-77
2022/03/24 08:18:30;;;;;;;;;40.75;35.75;;;;;13.87;36.72;102367.47;4972661;28;46190;-77
2022/03/24 08:20:55;;;;;;;;;49.50;38.50;;;;;13.87;36.33;102367.47;4973670;28;45452;-76
2022/03/24 08:23:21;;;;;;;;;43.50;36.75;;;;;13.92;36.94;102374.56;4977661;28;45377;-79
2022/03/24 08:25:46;;;;;;;;;45.50;35.50;;;;;13.92;36.28;102364.69;4975544;28;45520;-78
2022/03/24 08:28:12;;;;;;;;;39.00;36.00;;;;;13.97;36.38;102364.59;4971554;28;46228;-78
2022/03/24 08:30:39;;;;;;;;;26.00;23.25;;;;;14.03;36.22;102365.38;4969312;28;45435;-78
2022/03/24 08:33:05;;;;;;;;;48.50;39.00;;;;;14.06;36.17;102373.31;4977886;28;45432;-77
2022/03/24 08:35:30;;;;;;;;;45.75;35.75;;;;;14.13;36.18;102368.72;4978122;28;45417;-78
2022/03/24 08:37:56;;;;;;;;;40.00;35.75;;;;;14.14;36.21;102365.13;4967419;28;45300;-78
2022/03/24 08:40:22;;;;;;;;;43.00;36.25;;;;;14.23;36.19;102373.00;4976954;28;45376;-77
2022/03/24 08:42:48;;;;;;;;;45.75;37.25;;;;;14.29;35.47;102371.09;4974301;28;45542;-77
2022/03/24 08:45:15;;;;;;;;;38.00;33.50;;;;;14.33;35.01;102370.97;4975016;28;45571;-77
2022/03/24 08:47:42;;;;;;;;;39.50;32.75;;;;;14.33;35.55;102370.09;4965896;28;45468;-77
2022/03/24 08:50:10;;;;;;;;;43.25;34.00;;;;;14.43;35.21;102372.56;4979543;28;45408;-77
2022/03/24 08:52:35;;;;;;;;;41.75;34.00;;;;;14.49;35.46;102379.59;4981289;28;45516;-77
2022/03/24 08:55:02;;;;;;;;;35.50;33.00;;;;;14.54;35.62;102374.09;4989703;28;45790;-78
2022/03/24 08:57:28;;;;;;;;;46.50;36.50;;;;;14.59;35.57;102385.66;4979739;28;45446;-77
2022/03/24 08:59:55;;;;;;;;;40.50;31.75;;;;;14.67;34.84;102388.16;4973701;28;47343;-77
2022/03/24 09:02:21;;;;;;;;;41.50;34.50;;;;;14.68;34.79;102377.38;4979028;28;45527;-77
2022/03/24 09:04:49;;;;;;;;;47.25;40.00;;;;;14.74;34.69;102382.63;4974802;28;45300;-77
2022/03/24 09:07:15;;;;;;;;;5.00;0.00;;;;;14.77;34.79;102382.53;4971320;28;46855;-77
2022/03/24 09:09:42;;;;;;;;;39.00;34.50;;;;;14.79;34.40;102388.75;4974968;28;45729;-77
2022/03/24 09:12:09;;;;;;;;;36.50;32.75;;;;;14.84;34.63;102377.91;4981673;28;45531;-77
2022/03/24 09:14:35;;;;;;;;;39.25;33.00;;;;;14.89;34.63;102388.56;4978085;28;45552;-77
2022/03/24 09:17:01;;;;;;;;;40.25;35.50;;;;;14.99;34.94;102392.78;4977359;28;47405;-77
2022/03/24 09:19:26;;;;;;;;;43.75;36.50;;;;;14.99;34.37;102380.22;4970192;28;45538;-77
2022/03/24 09:21:51;;;;;;;;;50.50;40.75;;;;;15.01;34.24;102375.66;4979713;28;45411;-77
2022/03/24 09:24:17;;;;;;;;;36.50;33.75;;;;;15.07;34.32;102380.03;4978306;28;45223;-77
2022/03/24 09:26:43;;;;;;;;;40.50;36.00;;;;;15.16;34.21;102385.16;4980266;28;46215;-77
2022/03/24 09:29:10;;;;;;;;;45.75;36.50;;;;;15.21;34.50;102387.75;4978892;28;45340;-76
2022/03/24 09:31:35;;;;;;;;;43.75;36.75;;;;;15.21;34.21;102376.97;4981949;28;45341;-77
2022/03/24 09:34:01;;;;;;;;;46.25;37.00;;;;;15.32;34.36;102393.75;4980089;28;45314;-77
2022/03/24 09:36:26;;;;;;;;;48.00;37.25;;;;;15.34;34.32;102396.38;4977024;28;46058;-77
2022/03/24 09:38:52;;;;;;;;;45.75;37.25;;;;;15.41;34.24;102394.44;4978795;28;45402;-77
2022/03/24 09:41:19;;;;;;;;;43.50;36.75;;;;;15.46;34.15;102385.28;4981173;28;45481;-77
2022/03/24 09:43:45;;;;;;;;;51.00;40.50;;;;;15.51;34.29;102377.97;4968737;28;45743;-77
2022/03/24 09:46:11;;;;;;;;;44.25;37.25;;;;;15.61;34.05;102385.81;4968714;28;46119;-77
2022/03/24 09:48:37;;;;;;;;;49.00;40.25;;;;;15.68;34.17;102387.41;4976334;28;47054;-77
2022/03/24 09:51:02;;;;;;;;;49.75;39.75;;;;;15.68;34.12;102376.63;4981531;28;45498;-77
2022/03/24 09:53:27;;;;;;;;;50.75;41.50;;;;;15.82;34.02;102381.66;4968100;28;45566;-77
2022/03/24 09:55:54;;;;;;;;;47.00;38.75;;;;;15.88;34.26;102371.59;4979853;28;45400;-77
2022/03/24 09:58:25;;;;;;;;;42.75;36.75;;;;;15.98;34.04;102374.03;4979643;28;45870;-77
2022/03/24 10:00:50;;;;;;;;;47.50;40.00;;;;;15.92;33.56;102350.84;4981082;28;45694;-76
2022/03/24 10:03:18;;;;;;;;;44.00;36.75;;;;;16.10;33.41;102368.28;4981080;28;46104;-77
2022/03/24 10:05:59;;;;;;;;;51.50;39.75;;;;;16.18;33.58;102368.94;4981077;28;45324;-77
2022/03/24 10:08:27;;;;;;;;;53.50;40.25;;;;;16.22;33.46;102376.00;4974772;28;45834;-77
2022/03/24 10:10:58;;;;;;;;;50.00;41.25;;;;;16.22;33.66;102357.16;4977359;28;45717;-77
2022/03/24 10:13:44;;;;;;;;;46.00;38.50;;;;;16.30;33.59;102371.28;4980023;28;45681;-77
2022/03/24 10:16:11;;;;;;;;;58.75;43.00;;;;;16.38;33.31;102356.69;4979692;28;46421;-77
2022/03/24 10:18:36;;;;;;;;;46.00;35.75;;;;;16.40;33.21;102366.47;4969521;28;45774;-77
2022/03/24 10:21:05;;;;;;;;;47.25;39.00;;;;;16.45;32.95;102364.50;4991662;28;45414;-77
2022/03/24 10:23:43;;;;;;;;;41.75;36.25;;;;;16.53;33.23;102369.66;4980107;28;45320;-79
2022/03/24 10:26:08;;;;;;;;;52.25;42.00;;;;;16.56;33.11;102355.22;4979903;28;45518;-81
2022/03/24 10:28:34;;;;;;;;;46.25;36.00;;;;;16.59;33.25;102356.00;4968864;28;45455;-81
2022/03/24 10:30:59;;;;;;;;;42.25;35.25;;;;;16.65;32.97;102363.00;4964812;28;45473;-80
2022/03/24 10:33:47;;;;;;;;;52.00;39.75;;;;;16.71;33.22;102359.25;4972512;28;45431;-78
2022/03/24 10:36:19;;;;;;;;;49.25;41.25;;;;;16.80;33.24;102361.63;4974632;28;46517;-77
2022/03/24 10:38:47;;;;;;;;;46.00;36.25;;;;;16.84;32.77;102355.22;4964622;28;45856;-77
2022/03/24 10:41:25;;;;;;;;;45.25;37.50;;;;;16.91;32.87;102358.63;4978782;28;45408;-78
2022/03/24 10:43:53;;;;;;;;;47.25;38.25;;;;;16.91;33.16;102346.00;4973444;28;45498;-69
2022/03/24 10:46:23;;;;;;;;;45.75;39.00;;;;;16.96;32.61;102344.03;4978907;28;47251;-68
2022/03/24 10:48:51;;;;;;;;;46.50;38.00;;;;;16.97;32.55;102342.22;4978771;28;46205;-78
2022/03/24 10:51:31;;;;;;;;;43.00;36.00;;;;;17.13;32.63;102356.06;4977844;28;45535;-77
2022/03/24 10:54:15;;;;;;;;;47.75;37.75;;;;;17.22;32.26;102355.75;4983976;28;45552;-77
2022/03/24 10:56:46;;;;;;;;;46.25;36.75;;;;;17.27;32.44;102350.19;4971675;28;48567;-77
2022/03/24 10:59:12;;;;;;;;;38.75;34.50;;;;;17.32;32.62;102350.91;4975442;28;45392;-73
2022/03/24 11:01:38;;;;;;;;;47.50;38.50;;;;;17.40;32.23;102344.28;4972830;28;45518;-76
2022/03/24 11:04:03;;;;;;;;;46.00;39.00;;;;;17.44;32.16;102349.59;4967338;28;45507;-76
2022/03/24 11:06:30;;;;;;;;;47.25;39.00;;;;;17.51;32.07;102345.75;4977378;28;46627;-76
2022/03/24 11:09:00;;;;;;;;;44.75;37.25;;;;;17.58;32.12;102352.69;4976473;28;45471;-78